createdAt,value
2022-09-20T00:01:21.105Z,8.20
2022-09-20T00:03:52.260Z,8.20
2022-09-20T00:06:22.102Z,8.10
2022-09-20T00:08:51.274Z,8.00
2022-09-20T00:11:20.682Z,8.00
2022-09-20T00:13:50.381Z,7.90
2022-09-20T00:16:20.138Z,7.70
2022-09-20T00:18:49.869Z,7.70
2022-09-20T00:21:21.104Z,7.70
2022-09-20T00:23:49.723Z,7.70
2022-09-20T00:26:18.608Z,7.60
2022-09-20T00:28:47.856Z,7.60
2022-09-20T00:31:16.513Z,7.60
2022-09-20T00:34:02.834Z,7.60
2022-09-20T00:36:32.866Z,7.50
2022-09-20T00:39:02.231Z,7.60
2022-09-20T00:41:31.380Z,7.50
2022-09-20T00:44:01.280Z,7.50
2022-09-20T00:46:33.719Z,7.50
2022-09-20T00:49:06.139Z,7.80
2022-09-20T00:51:38.336Z,7.40
2022-09-20T00:54:08.712Z,7.40
2022-09-20T00:56:39.448Z,7.40
2022-09-20T00:59:11.285Z,7.40
2022-09-20T01:01:39.891Z,7.40
2022-09-20T01:04:09.114Z,7.30
2022-09-20T01:06:38.943Z,7.40
2022-09-20T01:09:08.187Z,7.30
2022-09-20T01:11:37.524Z,7.40
2022-09-20T01:14:06.185Z,7.40
2022-09-20T01:16:35.292Z,7.30
2022-09-20T01:19:07.394Z,7.30
2022-09-20T01:21:36.061Z,7.30
2022-09-20T01:24:08.082Z,7.20
2022-09-20T01:26:55.254Z,7.20
2022-09-20T01:29:31.862Z,7.30
2022-09-20T01:32:02.437Z,7.40
2022-09-20T01:34:34.895Z,7.40
2022-09-20T01:37:06.360Z,7.40
2022-09-20T01:39:37.868Z,7.40
2022-09-20T01:42:08.394Z,7.50
2022-09-20T01:44:39.789Z,7.50
2022-09-20T01:47:12.933Z,7.50
2022-09-20T01:49:47.877Z,7.50
2022-09-20T01:52:34.329Z,7.60
2022-09-20T01:55:19.204Z,7.60
2022-09-20T01:58:01.200Z,7.70
2022-09-20T02:00:32.255Z,7.70
2022-09-20T02:03:14.271Z,7.80
2022-09-20T02:05:57.437Z,7.80
2022-09-20T02:08:44.139Z,7.80
2022-09-20T02:11:14.579Z,7.80
2022-09-20T02:14:04.063Z,7.80
2022-09-20T02:16:42.480Z,7.90
2022-09-20T02:19:19.589Z,7.80
2022-09-20T02:21:54.148Z,7.80
2022-09-20T02:24:26.236Z,7.70
2022-09-20T02:27:03.754Z,7.60
2022-09-20T02:29:37.784Z,7.30
2022-09-20T02:32:13.027Z,7.90
2022-09-20T02:34:56.335Z,7.70
2022-09-20T02:37:39.145Z,7.90
2022-09-20T02:40:14.451Z,7.70
2022-09-20T02:42:46.253Z,7.70
2022-09-20T02:45:19.821Z,7.80
2022-09-20T02:47:49.776Z,7.40
2022-09-20T02:50:30.863Z,7.90
2022-09-20T02:53:05.965Z,7.60
2022-09-20T02:55:39.905Z,8.50
2022-09-20T02:58:18.380Z,8.10
2022-09-20T03:00:50.679Z,7.80
2022-09-20T03:03:25.129Z,8.10
2022-09-20T03:06:01.218Z,7.90
2022-09-20T03:08:35.119Z,8.30
2022-09-20T03:11:11.010Z,7.90
2022-09-20T03:13:49.952Z,7.80
2022-09-20T03:16:23.575Z,7.70
2022-09-20T03:19:00.346Z,7.60
2022-09-20T03:21:36.776Z,7.40
2022-09-20T03:24:10.191Z,7.90
2022-09-20T03:26:46.024Z,8.30
2022-09-20T03:29:21.930Z,8.10
2022-09-20T03:31:59.146Z,8.10
2022-09-20T03:34:38.930Z,8.20
2022-09-20T03:37:16.010Z,8.00
2022-09-20T03:40:03.094Z,7.90
2022-09-20T03:42:32.571Z,8.00
2022-09-20T03:45:22.197Z,7.90
2022-09-20T03:48:08.760Z,8.20
2022-09-20T03:50:46.411Z,8.30
2022-09-20T03:53:33.556Z,8.20
2022-09-20T03:56:11.890Z,8.30
2022-09-20T03:58:47.870Z,8.30
2022-09-20T04:01:28.080Z,8.30
2022-09-20T04:04:01.708Z,7.70
2022-09-20T04:06:40.830Z,8.20
2022-09-20T04:09:21.387Z,8.80
2022-09-20T04:11:55.165Z,7.90
2022-09-20T04:14:28.124Z,8.50
2022-09-20T04:17:02.303Z,8.10
2022-09-20T04:19:34.560Z,8.30
2022-09-20T04:22:07.472Z,8.40
2022-09-20T04:24:39.280Z,8.50
2022-09-20T04:27:12.960Z,8.40
2022-09-20T04:29:44.764Z,8.60
2022-09-20T04:32:16.588Z,8.60
2022-09-20T04:35:05.187Z,8.80
2022-09-20T04:37:36.357Z,9.10
2022-09-20T04:40:10.914Z,8.50
2022-09-20T04:42:54.728Z,8.80
2022-09-20T04:45:42.245Z,8.70
2022-09-20T04:48:31.769Z,9.10
2022-09-20T04:51:18.742Z,9.00
2022-09-20T04:54:08.409Z,8.80
2022-09-20T04:56:48.817Z,8.70
2022-09-20T04:59:21.844Z,9.00
2022-09-20T05:02:17.519Z,8.80
2022-09-20T05:04:58.083Z,8.90
2022-09-20T05:07:45.920Z,8.90
2022-09-20T05:10:27.673Z,9.30
2022-09-20T05:13:07.588Z,8.50
2022-09-20T05:15:44.529Z,9.20
2022-09-20T05:18:35.162Z,8.90
2022-09-20T05:21:09.431Z,9.00
2022-09-20T05:23:58.382Z,8.70
2022-09-20T05:26:31.770Z,8.90
2022-09-20T05:29:03.651Z,9.00
2022-09-20T05:31:40.635Z,9.40
2022-09-20T05:34:15.220Z,9.20
2022-09-20T05:36:49.331Z,9.60
2022-09-20T05:39:23.676Z,9.50
2022-09-20T05:41:56.172Z,9.10
2022-09-20T05:44:31.216Z,9.30
2022-09-20T05:47:05.287Z,9.20
2022-09-20T05:49:40.930Z,10.10
2022-09-20T05:52:24.120Z,9.20
2022-09-20T05:55:01.396Z,8.90
2022-09-20T05:57:36.489Z,9.50
2022-09-20T06:00:08.888Z,9.30
2022-09-20T06:02:49.080Z,9.40
2022-09-20T06:05:18.778Z,9.60
2022-09-20T06:08:03.915Z,9.90
2022-09-20T06:10:39.914Z,9.90
2022-09-20T06:13:16.965Z,9.50
2022-09-20T06:15:51.922Z,8.70
2022-09-20T06:18:24.487Z,9.50
2022-09-20T06:20:58.609Z,9.70
2022-09-20T06:23:27.306Z,10.10
2022-09-20T06:25:57.956Z,9.70
2022-09-20T06:28:29.524Z,10.10
2022-09-20T06:30:59.728Z,9.70
2022-09-20T06:33:29.465Z,9.70
2022-09-20T06:36:20.250Z,9.80
2022-09-20T06:39:11.888Z,10.00
2022-09-20T06:41:40.709Z,9.90
2022-09-20T06:44:13.204Z,10.00
2022-09-20T06:46:43.278Z,9.60
2022-09-20T06:49:11.855Z,9.90
2022-09-20T06:51:41.502Z,10.00
2022-09-20T06:54:21.505Z,9.80
2022-09-20T06:56:51.283Z,9.90
2022-09-20T06:59:19.924Z,9.80
2022-09-20T07:01:49.990Z,9.30
2022-09-20T07:04:18.727Z,9.80
2022-09-20T07:06:47.645Z,9.80
2022-09-20T07:09:17.246Z,10.10
2022-09-20T07:11:46.449Z,9.90
2022-09-20T07:14:15.684Z,10.10
2022-09-20T07:16:44.560Z,9.90
2022-09-20T07:19:15.135Z,10.70
2022-09-20T07:21:43.747Z,10.50
2022-09-20T07:24:15.145Z,10.30
2022-09-20T07:29:12.792Z,10.60
2022-09-20T07:31:41.581Z,10.30
2022-09-20T07:34:11.188Z,10.30
2022-09-20T07:36:44.148Z,10.50
2022-09-20T07:39:12.810Z,10.70
2022-09-20T07:41:41.495Z,10.60
2022-09-20T07:44:24.924Z,10.70
2022-09-20T07:46:59.452Z,10.80
2022-09-20T07:49:30.030Z,10.60
2022-09-20T07:52:00.434Z,10.80
2022-09-20T07:54:29.255Z,11.00
2022-09-20T07:56:58.022Z,10.70
2022-09-20T07:59:26.954Z,10.80
2022-09-20T08:01:57.732Z,10.70
2022-09-20T08:04:26.433Z,10.50
2022-09-20T08:06:58.005Z,10.60
2022-09-20T08:09:28.007Z,10.70
2022-09-20T08:11:58.391Z,10.70
2022-09-20T08:14:27.187Z,10.80
2022-09-20T08:17:00.343Z,10.70
2022-09-20T08:19:30.427Z,10.50
2022-09-20T08:21:59.049Z,10.70
2022-09-20T08:24:28.979Z,10.70
2022-09-20T08:26:57.604Z,10.40
2022-09-20T08:29:26.781Z,10.50
2022-09-20T08:31:58.386Z,10.80
2022-09-20T08:34:27.115Z,10.20
2022-09-20T08:36:56.660Z,11.00
2022-09-20T08:42:20.311Z,10.80
2022-09-20T08:45:00.529Z,10.90
2022-09-20T08:47:31.274Z,10.80
2022-09-20T08:50:08.887Z,10.90
2022-09-20T08:52:40.308Z,11.00
2022-09-20T08:55:17.122Z,11.10
2022-09-20T08:57:49.899Z,10.80
2022-09-20T09:00:20.213Z,11.00
2022-09-20T09:02:51.105Z,11.10
2022-09-20T09:05:33.707Z,11.00
2022-09-20T09:08:05.172Z,11.30
2022-09-20T09:10:42.535Z,11.40
2022-09-20T09:13:18.533Z,11.50
2022-09-20T09:15:48.428Z,11.60
2022-09-20T09:18:17.160Z,11.50
2022-09-20T09:20:46.879Z,11.60
2022-09-20T09:23:25.430Z,11.80
2022-09-20T09:25:54.669Z,11.80
2022-09-20T09:28:26.127Z,11.90
2022-09-20T09:31:12.424Z,11.90
2022-09-20T09:33:44.573Z,12.10
2022-09-20T09:36:15.469Z,11.90
2022-09-20T09:38:45.828Z,12.10
2022-09-20T09:41:24.518Z,12.10
2022-09-20T09:44:01.387Z,12.30
2022-09-20T09:46:32.573Z,12.50
2022-09-20T09:49:12.361Z,12.60
2022-09-20T09:54:18.217Z,13.40
2022-09-20T09:56:52.575Z,13.50
2022-09-20T09:59:38.037Z,13.50
2022-09-20T10:02:14.451Z,13.40
2022-09-20T10:04:46.385Z,13.40
2022-09-20T10:07:20.214Z,13.60
2022-09-20T10:09:59.419Z,13.90
2022-09-20T10:12:42.942Z,14.00
2022-09-20T10:15:18.482Z,14.30
2022-09-20T10:17:53.527Z,14.30
2022-09-20T10:20:33.736Z,14.40
2022-09-20T10:23:39.479Z,14.50
2022-09-20T10:26:00.841Z,14.30
2022-09-20T10:28:35.634Z,14.30
2022-09-20T10:31:08.880Z,14.30
2022-09-20T10:33:46.159Z,14.50
2022-09-20T10:36:24.239Z,14.40
2022-09-20T10:38:58.181Z,14.60
2022-09-20T10:41:48.742Z,14.70
2022-09-20T10:44:28.641Z,14.50
2022-09-20T10:47:01.321Z,14.60
2022-09-20T10:49:35.947Z,14.60
2022-09-20T10:52:11.304Z,14.60
2022-09-20T10:54:48.065Z,14.60
2022-09-20T10:57:26.163Z,14.60
2022-09-20T11:00:02.415Z,14.90
2022-09-20T11:02:49.541Z,15.20
2022-09-20T11:05:31.258Z,15.20
2022-09-20T11:08:07.951Z,15.50
2022-09-20T11:10:37.999Z,15.50
2022-09-20T11:13:09.962Z,15.30
2022-09-20T11:15:41.850Z,15.20
2022-09-20T11:18:13.661Z,15.00
2022-09-20T11:20:45.537Z,14.80
2022-09-20T11:23:17.362Z,14.40
2022-09-20T11:25:48.740Z,14.60
2022-09-20T11:28:20.557Z,14.90
2022-09-20T11:30:55.821Z,15.40
2022-09-20T11:33:27.093Z,15.90
2022-09-20T11:35:59.378Z,15.90
2022-09-20T11:38:33.337Z,15.60
2022-09-20T11:43:31.450Z,15.70
2022-09-20T11:46:02.209Z,15.60
2022-09-20T11:48:32.537Z,15.70
2022-09-20T11:51:13.930Z,15.80
2022-09-20T11:53:47.320Z,16.10
2022-09-20T11:56:18.517Z,16.20
2022-09-20T11:58:49.584Z,16.60
2022-09-20T12:01:28.319Z,17.00
2022-09-20T12:04:20.657Z,17.20
2022-09-20T12:06:49.120Z,17.00
2022-09-20T12:09:29.548Z,16.60
2022-09-20T12:12:06.631Z,16.60
2022-09-20T12:14:35.457Z,16.40
2022-09-20T12:17:05.910Z,16.50
2022-09-20T12:19:38.922Z,16.40
2022-09-20T12:22:26.898Z,16.30
2022-09-20T12:25:14.280Z,16.30
2022-09-20T12:28:02.148Z,15.80
2022-09-20T12:30:33.266Z,16.10
2022-09-20T12:33:03.741Z,15.90
2022-09-20T12:35:56.239Z,16.20
2022-09-20T12:38:31.327Z,16.30
2022-09-20T12:41:04.810Z,17.00
2022-09-20T12:46:06.547Z,17.20
2022-09-20T12:54:06.657Z,16.70
2022-09-20T12:56:36.527Z,16.50
2022-09-20T12:59:07.557Z,16.50
2022-09-20T13:01:39.622Z,16.30
2022-09-20T13:06:37.203Z,16.30
2022-09-20T13:09:08.608Z,16.00
2022-09-20T13:11:40.429Z,15.50
2022-09-20T13:19:08.847Z,16.10
2022-09-20T13:21:39.211Z,16.20
2022-09-20T13:24:08.375Z,16.10
2022-09-20T13:29:08.186Z,16.00
2022-09-20T13:31:37.217Z,16.20
2022-09-20T13:34:26.261Z,16.30
2022-09-20T13:36:59.648Z,16.60
2022-09-20T13:39:35.123Z,16.60
2022-09-20T13:42:07.273Z,16.70
2022-09-20T13:44:37.410Z,16.60
2022-09-20T13:47:21.805Z,16.60
2022-09-20T13:49:51.936Z,16.70
2022-09-20T13:52:25.221Z,16.60
2022-09-20T13:54:55.204Z,16.20
2022-09-20T13:57:27.092Z,16.30
2022-09-20T13:59:57.163Z,16.20
2022-09-20T14:02:28.185Z,16.30
2022-09-20T14:05:00.559Z,16.40
2022-09-20T14:07:31.145Z,16.50
2022-09-20T14:10:00.331Z,16.00
2022-09-20T14:12:29.495Z,15.80
2022-09-20T14:14:58.493Z,15.60
2022-09-20T14:17:29.605Z,15.30
2022-09-20T14:20:00.099Z,15.00
2022-09-20T14:22:29.386Z,14.80
2022-09-20T14:25:01.859Z,14.60
2022-09-20T14:27:31.664Z,14.30
2022-09-20T14:30:00.537Z,14.00
2022-09-20T14:32:33.958Z,13.90
2022-09-20T14:35:07.402Z,12.90
2022-09-20T14:37:37.692Z,12.90
2022-09-20T14:40:08.416Z,12.10
2022-09-20T14:42:41.817Z,11.90
2022-09-20T14:45:22.071Z,11.70
2022-09-20T14:47:55.797Z,11.50
2022-09-20T14:50:27.862Z,11.40
2022-09-20T14:53:21.573Z,11.40
2022-09-20T14:55:57.526Z,11.40
2022-09-20T14:58:26.685Z,11.30
2022-09-20T15:00:57.949Z,11.40
2022-09-20T15:03:27.978Z,11.40
2022-09-20T15:05:58.167Z,11.30
2022-09-20T15:08:27.025Z,11.30
2022-09-20T15:10:55.790Z,11.30
2022-09-20T15:13:24.570Z,11.20
2022-09-20T15:15:54.613Z,11.20
2022-09-20T15:18:24.131Z,11.10
2022-09-20T15:20:52.813Z,11.10
2022-09-20T15:23:23.200Z,11.10
2022-09-20T15:25:53.191Z,11.00
2022-09-20T15:28:22.034Z,11.00
2022-09-20T15:30:52.044Z,11.00
2022-09-20T15:33:21.222Z,11.00
2022-09-20T15:35:49.919Z,11.00
2022-09-20T15:38:19.197Z,11.00
2022-09-20T15:40:49.760Z,11.00
2022-09-20T15:43:19.671Z,11.00
2022-09-20T15:45:50.648Z,11.00
2022-09-20T15:48:21.570Z,11.10
2022-09-20T15:51:08.132Z,11.10
2022-09-20T15:53:38.660Z,11.10
2022-09-20T15:56:15.310Z,11.20
2022-09-20T15:58:46.323Z,11.10
2022-09-20T16:01:16.762Z,11.10
2022-09-20T16:03:46.166Z,11.10
2022-09-20T16:06:14.811Z,11.10
2022-09-20T16:08:44.276Z,11.10
2022-09-20T16:11:19.281Z,11.10
2022-09-20T16:13:53.748Z,11.10
2022-09-20T16:16:22.763Z,11.10
2022-09-20T16:19:08.896Z,11.00
2022-09-20T16:21:39.267Z,10.90
2022-09-20T16:24:08.310Z,10.90
2022-09-20T16:26:38.304Z,10.90
2022-09-20T16:29:07.598Z,10.90
2022-09-20T16:31:40.126Z,10.80
2022-09-20T16:34:13.589Z,10.80
2022-09-20T16:36:43.486Z,10.70
2022-09-20T16:39:12.757Z,10.70
2022-09-20T16:41:42.852Z,10.60
2022-09-20T16:44:11.492Z,13.30
2022-09-20T16:46:40.158Z,10.50
2022-09-20T16:49:11.100Z,10.50
2022-09-20T16:51:40.708Z,10.40
2022-09-20T16:54:12.271Z,10.30
2022-09-20T16:56:44.385Z,10.30
2022-09-20T16:59:13.943Z,10.20
2022-09-20T17:01:43.017Z,10.10
2022-09-20T17:04:13.533Z,10.00
2022-09-20T17:06:43.352Z,9.80
2022-09-20T17:09:12.399Z,9.70
2022-09-20T17:11:44.744Z,9.60
2022-09-20T17:14:14.080Z,9.50
2022-09-20T17:16:42.924Z,9.40
2022-09-20T17:19:12.635Z,9.30
2022-09-20T17:21:50.534Z,9.20
2022-09-20T17:24:21.483Z,9.10
2022-09-20T17:26:51.773Z,9.00
2022-09-20T17:29:20.939Z,8.90
2022-09-20T17:31:55.127Z,8.90
2022-09-20T17:34:25.576Z,8.80
2022-09-20T17:36:55.607Z,8.70
2022-09-20T17:39:25.544Z,8.70
2022-09-20T17:41:55.828Z,8.60
2022-09-20T17:44:24.447Z,8.60
2022-09-20T17:46:54.249Z,8.50
2022-09-20T17:49:23.331Z,8.50
2022-09-20T17:51:52.784Z,8.50
2022-09-20T17:54:22.061Z,8.60
2022-09-20T17:56:52.451Z,8.50
2022-09-20T17:59:22.521Z,8.60
2022-09-20T18:01:52.526Z,8.60
2022-09-20T18:04:24.505Z,8.70
2022-09-20T18:06:54.270Z,8.70
2022-09-20T18:09:24.229Z,8.70
2022-09-20T18:11:53.606Z,8.70
2022-09-20T18:14:24.394Z,8.60
2022-09-20T18:16:55.172Z,8.60
2022-09-20T18:19:24.071Z,8.50
2022-09-20T18:21:52.798Z,8.40
2022-09-20T18:24:21.400Z,8.40
2022-09-20T18:26:50.081Z,8.40
2022-09-20T18:29:19.619Z,8.50
2022-09-20T18:31:50.735Z,8.60
2022-09-20T18:34:20.445Z,8.60
2022-09-20T18:36:53.077Z,8.60
2022-09-20T18:39:23.134Z,8.60
2022-09-20T18:41:53.410Z,8.60
2022-09-20T18:44:23.400Z,8.60
2022-09-20T18:46:54.961Z,8.70
2022-09-20T18:49:25.500Z,8.70
2022-09-20T18:51:56.877Z,8.80
2022-09-20T18:54:25.569Z,8.70
2022-09-20T18:56:54.640Z,8.70
2022-09-20T18:59:24.154Z,8.70
2022-09-20T19:02:00.798Z,8.60
2022-09-20T19:04:44.309Z,8.50
2022-09-20T19:07:17.306Z,8.40
2022-09-20T19:09:49.659Z,8.20
2022-09-20T19:12:20.571Z,8.20
2022-09-20T19:14:55.244Z,8.30
2022-09-20T19:17:28.194Z,8.30
2022-09-20T19:20:03.240Z,8.40
2022-09-20T19:22:36.115Z,8.40
2022-09-20T19:25:15.863Z,8.50
2022-09-20T19:27:44.774Z,8.50
2022-09-20T19:30:14.125Z,8.50
2022-09-20T19:32:44.650Z,8.60
2022-09-20T19:35:17.782Z,8.50
2022-09-20T19:37:55.808Z,8.40
2022-09-20T19:40:29.950Z,8.40
2022-09-20T19:43:04.759Z,8.40
2022-09-20T19:45:38.615Z,8.40
2022-09-20T19:48:14.096Z,8.30
2022-09-20T19:50:45.473Z,8.30
2022-09-20T19:53:14.762Z,8.40
2022-09-20T19:55:46.317Z,8.30
2022-09-20T19:58:15.485Z,8.30
2022-09-20T20:00:44.771Z,8.20
2022-09-20T20:03:15.883Z,8.20
2022-09-20T20:05:48.253Z,8.20
2022-09-20T20:08:18.864Z,8.20
2022-09-20T20:10:51.499Z,8.10
2022-09-20T20:13:42.935Z,8.10
2022-09-20T20:16:13.468Z,8.10
2022-09-20T20:18:47.885Z,8.10
2022-09-20T20:21:21.082Z,8.00
2022-09-20T20:23:58.831Z,8.00
2022-09-20T20:26:27.955Z,7.90
2022-09-20T20:28:57.594Z,7.90
2022-09-20T20:31:26.185Z,7.90
2022-09-20T20:33:56.219Z,7.90
2022-09-20T20:36:26.253Z,7.90
2022-09-20T20:38:55.255Z,7.90
2022-09-20T20:41:23.812Z,7.90
2022-09-20T20:43:54.485Z,7.90
2022-09-20T20:46:23.911Z,7.90
2022-09-20T20:48:52.606Z,8.00
2022-09-20T20:51:23.639Z,7.90
2022-09-20T20:53:53.189Z,8.00
2022-09-20T20:56:22.616Z,8.10
2022-09-20T20:58:52.558Z,8.10
2022-09-20T21:01:22.623Z,8.10
2022-09-20T21:03:52.170Z,8.20
2022-09-20T21:06:23.446Z,8.20
2022-09-20T21:08:52.127Z,8.10
2022-09-20T21:11:23.497Z,8.10
2022-09-20T21:13:52.767Z,8.10
2022-09-20T21:16:23.095Z,8.10
2022-09-20T21:18:52.510Z,8.10
2022-09-20T21:21:23.554Z,8.00
2022-09-20T21:23:53.453Z,8.00
2022-09-20T21:26:23.467Z,8.00
2022-09-20T21:28:54.537Z,7.90
2022-09-20T21:31:27.117Z,7.90
2022-09-20T21:33:56.229Z,8.00
2022-09-20T21:36:27.803Z,7.90
2022-09-20T21:38:56.583Z,7.80
2022-09-20T21:41:25.919Z,7.80
2022-09-20T21:43:55.480Z,7.80
2022-09-20T21:46:25.905Z,7.80
2022-09-20T21:48:55.241Z,7.80
2022-09-20T21:51:24.355Z,7.80
2022-09-20T21:53:56.460Z,7.90
2022-09-20T21:56:26.321Z,7.80
2022-09-20T21:58:55.022Z,7.80
2022-09-20T22:01:24.494Z,7.90
2022-09-20T22:03:55.022Z,7.80
2022-09-20T22:06:24.536Z,7.80
2022-09-20T22:08:56.676Z,7.90
2022-09-20T22:11:26.816Z,8.00
2022-09-20T22:13:56.185Z,8.10
2022-09-20T22:16:26.237Z,8.10
2022-09-20T22:18:55.965Z,8.20
2022-09-20T22:21:25.734Z,8.20
2022-09-20T22:23:57.396Z,8.40
2022-09-20T22:26:26.753Z,8.40
2022-09-20T22:28:55.744Z,8.50
2022-09-20T22:31:25.374Z,8.50
2022-09-20T22:33:54.667Z,8.60
2022-09-20T22:36:24.034Z,8.60
2022-09-20T22:38:52.862Z,8.60
2022-09-20T22:41:23.568Z,8.50
2022-09-20T22:43:52.263Z,8.60
2022-09-20T22:46:21.783Z,8.50
2022-09-20T22:48:50.464Z,8.60
2022-09-20T22:51:19.750Z,8.50
2022-09-20T22:53:48.919Z,8.40
2022-09-20T22:56:18.680Z,8.40
2022-09-20T22:58:49.589Z,8.40
2022-09-20T23:01:19.728Z,8.40
2022-09-20T23:03:49.259Z,8.50
2022-09-20T23:06:20.919Z,8.50
2022-09-20T23:08:49.810Z,8.50
2022-09-20T23:11:18.740Z,8.40
2022-09-20T23:16:19.291Z,8.40
2022-09-20T23:18:48.836Z,8.40
2022-09-20T23:21:17.693Z,8.80
2022-09-20T23:23:48.130Z,8.30
2022-09-20T23:26:18.632Z,8.30
2022-09-20T23:28:48.263Z,8.40
2022-09-20T23:31:18.659Z,8.40
2022-09-20T23:33:48.430Z,8.30
2022-09-20T23:36:17.561Z,8.30
2022-09-20T23:38:46.234Z,8.30
2022-09-20T23:41:15.884Z,8.30
2022-09-20T23:43:44.496Z,8.30
2022-09-20T23:46:14.257Z,8.40
2022-09-20T23:48:44.518Z,8.70
2022-09-20T23:51:14.361Z,8.40
2022-09-20T23:53:43.719Z,8.50
2022-09-20T23:56:12.830Z,8.60
2022-09-20T23:58:41.724Z,8.60
